KBAF/BAF METAR and TAF weather

Enter ICAO airport designator
Station Type Date Time Source
KBAF METAR 2021/09/16 09:57 UTC NOAA

KBAF 160957Z AUTO 00000KT 10SM -RA FEW007 BKN015 BKN050 18/18 A3016 RMK AO2 P0000 T01830183


Station Type Date Time Source
KBAF Decoded METAR 2021/09/16 09:57 UTC NOAA

WESTFIELD BARNES MUNICIPAL, MA, United States (KBAF) 42-10N 072-43W 83M
Sep 16, 2021 - 05:57 AM EDT / 2021.09.16 0957 UTC
Wind: Calm:0
Visibility: 10 mile(s):0
Sky conditions: mostly cloudy
Weather: light rain
Precipitation last hour: A trace
Temperature: 64.9 F (18.3 C)
Dew Point: 64.9 F (18.3 C)
Relative Humidity: 100%
Pressure (altimeter): 30.16 in. Hg (1021 hPa)
ob: KBAF 160957Z AUTO 00000KT 10SM -RA FEW007 BKN015 BKN050 18/18 A3016 RMK AO2 P0000 T01830183
cycle: 10

Station Type Date Time Source
KBAF TAF 2021/09/16 08:30 UTC NOAA

TAF
AMD KBAF 160829Z 1608/1706 35005KT P6SM -SHRA OVC070
FM161000 36004KT 3SM -SHRA BR OVC045
FM161200 36004KT P6SM OVC035
FM161900 06005KT P6SM VCSH BKN030
FM170000 05004KT P6SM OVC015
FM170400 05003KT 3SM BR VCSH OVC008

Example: see airport list